Logo AVAMET
Benvolgut visitant, si us plau, ingressa Recuperar contrasenya

Inforatge Castelló de la Plana Tetuan

Dades diàries. Acumulats / Últims 30 dies disponibles

Data Temperatura (°C) Humitat rel. (%) Pressió rel. (hPa) Vent (km/h) Precipitació
Mínima Mitjana Màxima Amplitud
tèrmica
Mínima Mitjana Màxima Mínima Mitjana Màxima Predom. Mitjana Ràfega
màxima
Total
(mm)
Índex-n
Mínima Mitjana Màxima Mínima Mitjana Màxima n
0 a 1
P0 max
mm 5'
Dades mensuals acumulades fins l'últim dia disponible
01/2020 2,6 6,8 9,3 11,1 12,2 15,3 19,2 16,6 38 74 95 1.019 1.028 1.034   2,6 43,5 0,0
Dades anuals acumulades fins l'últim dia disponible
2020 2,6 6,8 9,3 11,1 12,2 15,3 19,2 16,6 38 74 95 1.019 1.028 1.034   2,6 43,5 0,0
Últims 30 dies disponibles
18-01-2020 9,3     12,9     18,0 8,7 50 61 77 1.019 1.026 1.032 SSW 2,6 17,7 0,0
17-01-2020 7,6     13,3     19,2 11,6 38 63 90 1.025 1.027 1.032 WNW 3,4 22,5 0,0
16-01-2020 7,8     12,4     17,9 10,1 51 74 87 1.026 1.027 1.029 E 1,8 17,7 0,0
15-01-2020 6,3     10,3     14,8 8,5 55 76 92 1.022 1.024 1.027 NNW 1,4 14,5 0,0
14-01-2020 6,0     9,8     14,3 8,3 61 74 87 1.021 1.022 1.023 WNW 1,9 17,7 0,0
13-01-2020 3,2     9,1     13,8 10,6 40 66 88 1.022 1.025 1.030 E 1,9 14,5 0,0
12-01-2020 2,6     9,1     14,0 11,4 66 80 89 1.028 1.030 1.031 E 1,9 16,1 0,0
11-01-2020 6,4     11,5     15,5 9,1 44 60 81 1.028 1.030 1.032 E 4,5 37,0 0,0
10-01-2020 8,7     12,4     14,7 6,0 46 64 90 1.023 1.026 1.029 NNW 8,0 43,5 0,0
09-01-2020 5,6     11,1     14,7 9,1 67 81 95 1.024 1.027 1.031 WNW 2,1 20,9 0,0
08-01-2020 6,3     10,9     16,8 10,5 63 82 92 1.028 1.030 1.032 NNE 1,6 19,3 0,0
07-01-2020 7,6     11,3     15,2 7,6 65 81 93 1.029 1.030 1.032 WNW 2,1 14,5 0,0
06-01-2020 8,1     11,3     14,8 6,7 69 78 88 1.028 1.029 1.030 E 3,1 19,3 0,0
05-01-2020 5,6     11,4     16,8 11,2 44 68 83 1.026 1.029 1.031 NNW 2,4 16,1 0,0
04-01-2020 5,8     11,2     15,9 10,1 52 75 92 1.031 1.032 1.033 WNW 3,2 20,9 0,0
03-01-2020 7,1     10,3     13,5 6,4 75 85 93 1.030 1.031 1.033 E 1,8 14,5 0,0
02-01-2020 9,2     11,4     13,9 4,7 71 81 88 1.030 1.031 1.033 E 2,4 19,3 0,0
01-01-2020 8,6     10,7     12,2 3,6 84 88 93 1.031 1.032 1.034 E 1,1 12,9 0,0
31-12-2019 8,4     10,8     13,8 5,4 76 87 93 1.032 1.033 1.035 SO 1,6 22,5 0,0
30-12-2019 9,3     11,9     15,3 6,0 64 78 90 1.032 1.033 1.035 NNW 2,1 20,9 0,0
29-12-2019 8,8     11,9     15,2 6,4 64 78 87 1.030 1.032 1.034 NW 2,3 17,7 0,0
28-12-2019 6,7     10,9     14,6 7,9 69 86 95 1.029 1.030 1.032 WSW 1,4 20,9 0,2
27-12-2019 7,5     12,1     15,8 8,3 67 78 91 1.028 1.029 1.030 E 1,8 14,5 0,0
26-12-2019 9,7     14,1     20,3 10,6 55 78 93 1.022 1.025 1.030 E 1,9 17,7 0,0
25-12-2019 9,8     14,6     19,9 10,1 53 76 92 1.023 1.024 1.026 E 1,0 12,9 0,0
24-12-2019 12,5     17,3     23,1 10,6 46 63 85 1.025 1.026 1.027 WNW 3,7 32,2 0,0
23-12-2019 12,2     15,9     19,6 7,4 35 52 64 1.018 1.023 1.026 WNW 3,1 40,2 0,0
22-12-2019 16,7     19,3     21,8 5,1 38 46 54 1.005 1.011 1.017 WSW 9,5 43,5 0,0
21-12-2019 16,3     20,6     25,9 9,6 37 59 80 998 1.001 1.005 WSW 11,7 67,6 0,0
20-12-2019 12,8     17,9     22,1 9,3 46 68 86 998 1.000 1.007 SSW 11,7 59,5 0,0
Últims 13 mesos disponibles
12/2019 6,7 10,6 16,7 14,2 12,9 17,9 25,9 19,2 46 71 88 1.000 1.018 1.033 E 5,8 75,6 72,4
11/2019 6,1 11,7 18,8 15,8 15,2 19,9 28,2 22,1 0 49 76 0 909 1.017 WNW 6,7 77,2 4,0
10/2019 10,3 16,5 21,9 20,3 17,6 24,1 28,3 18,0 45 71 86 1.006 1.016 1.021 E 4,6 51,5 17,2
09/2019 15,1 20,5 23,5 23,8 21,7 27,3 31,2 16,1 50 71 84 1.009 1.018 1.025 SE 7,4 72,4 49,6
08/2019 18,3 22,6 25,8 26,2 25,8 29,8 33,1 14,8 53 72 80 1.010 1.016 1.020 S 5,8 53,7 28,6
07/2019 20,6 23,0 25,1 26,8 27,7 30,3 34,4 13,8 48 66 79 1.005 1.014 1.021 SE 5,8 55,6 11,0
06/2019 12,7 18,6 23,0 22,7 21,1 26,6 37,5 24,8 37 63 79 1.008 1.015 1.022 SE 6,6 50,0 0,0
05/2019 9,6 14,4 17,5 18,3 17,9 22,2 28,2 18,6 48 66 82 1.004 1.015 1.024 SSE 6,3 61,1 15,2
04/2019 8,2 11,8 14,8 15,5 16,1 19,5 27,1 18,9 43 62 85 998 1.013 1.025 S 9,3 75,9 49,6
03/2019 6,3 10,1 14,2 14,7 13,2 19,2 25,5 19,2 38 58 79 1.011 1.023 1.030 S 6,0 51,9 10,6
02/2019 3,1 7,7 10,8 12,4 12,7 17,2 23,7 20,6 29 64 80 992 1.024 1.034 S 5,4 90,7 0,2
01/2019 2,3 6,7 10,2 11,7 12,3 16,3 22,9 20,6 34 57 81 1.000 1.018 1.030 SSO 6,5 83,3 0,2
12/2018 5,3 9,5 12,6 13,6 14,4 17,9 24,0 18,7 51 70 87 1.007 1.025 1.030 SSO 3,2 90,7 7,4
Tots els anys disponibles
2019 2,3 14,5 25,8 18,6 12,3 22,5 37,5 35,2 0 64 88 0 1.008 1.034 S 6,3 90,7 258,6
Temperatura (°C)
Humitat relativa (%)
Velocitat del vent i ràfega màxima (km/h)
Direcció del vent (°)
Pressió (hPa)
Precipitació (mm)
Nota sobre les dades: s'avisa a l'usuari de la provisionalitat i no oficialitat d'aquestes dades
Logo AVAMET blanc
Web allotjada a Sollutia
Llicència de Creative CommonsLa web d'AVAMET i els seus continguts estan subjectes a una llicència de
Reconeixement - No Comercial - Compartir igual
Últimes estacions: Xixona - Els Ameradors (Soci), Agres - El Tossal (Soci), Xàbia - Bevenguts (MeteoXàbia), Llíria (Aj. Soci/Inforatge), Orihuela - Lo Capitán, Cox & Guardamar del Segura - horta (Meteorihuela), l'Alcúdia - Carriona & el Real de Gandia (Inforatge), Benicàssim - les Vil·les (Soci),  l'Alfàs del Pi - l'Albir (Soci), - - -